WetterOnline ( https://www.wetteronline.de )

Wetter aktuell Thüringer Hütte

Aktuelles Wetter: Meiningen (453m)

6-stündlich | Neueste Meldungen
Ortszeit Temperatur Wetter
Mo, 14.10. 8:00 11.4° C wolkig
Mo, 14.10. 2:00 13.5° C wolkenlos
So, 13.10. 20:00 19.6° C wolkenlos
So, 13.10. 14:00 20.3° C wolkig
So, 13.10. 8:00 12.8° C wolkenlos
So, 13.10. 2:00 14.9° C wolkig
Sa, 12.10. 20:00 16.6° C bedeckt
Sa, 12.10. 14:00 17.9° C wolkenlos
Ortszeit Temperatur Wetter
Mo, 14.10. 13:00 20.1° C fast wolkenlos
Mo, 14.10. 12:50 20.1° C fast wolkenlos
Mo, 14.10. 12:40 19.9° C leicht bewölkt
Mo, 14.10. 12:30 19.0° C leicht bewölkt
Mo, 14.10. 12:20 19.0° C leicht bewölkt
Mo, 14.10. 12:10 18.6° C leicht bewölkt
Mo, 14.10. 12:00 18.1° C wolkenlos
Mo, 14.10. 11:30 16.7° C fast wolkenlos
Mo, 14.10. 11:00 15.8° C wolkenlos
Mo, 14.10. 10:30 15.2° C wolkenlos
Mo, 14.10. 10:00 14.1° C wolkenlos
Mo, 14.10. 9:30 13.2° C wolkenlos
Ortszeit Relative Feuchte Sichtweite
Mo, 14.10. 8:00 95% 26 km
Mo, 14.10. 2:00 89% 50 km
So, 13.10. 20:00 68% 60 km
So, 13.10. 14:00 63% 50 km
So, 13.10. 8:00 92% 35 km
So, 13.10. 2:00 80% 50 km
Sa, 12.10. 20:00 70% 60 km
Sa, 12.10. 14:00 60% 55 km
Ortszeit Relative Feuchte Sichtweite
Mo, 14.10. 13:00 60% 24 km
Mo, 14.10. 12:50 60% -
Mo, 14.10. 12:40 60% -
Mo, 14.10. 12:30 63% 17 km
Mo, 14.10. 12:20 63% -
Mo, 14.10. 12:10 67% -
Mo, 14.10. 12:00 70% 12 km
Mo, 14.10. 11:30 75% 7 km
Mo, 14.10. 11:00 77% 19 km
Mo, 14.10. 10:30 79% 55 km
Mo, 14.10. 10:00 83% 40 km
Mo, 14.10. 9:30 87% 35 km
Ortszeit Niederschlagsmenge Niederschlagsart
Mo, 14.10. 8:00 0.0 l/m2 in 12 Std. -
Mo, 14.10. 2:00 0.0 l/m2 in 6 Std. -
So, 13.10. 20:00 0.0 l/m2 in 12 Std. -
So, 13.10. 14:00 0.0 l/m2 in 6 Std. -
So, 13.10. 8:00 0.1 l/m2 in 12 Std. -
So, 13.10. 2:00 0.1 l/m2 in 6 Std. Regen
Sa, 12.10. 20:00 0.1 l/m2 in 12 Std. Regen
Sa, 12.10. 14:00 0.0 l/m2 in 6 Std. -
Ortszeit Niederschlagsmenge Niederschlagsart
Mo, 14.10. 13:00 0.0 l/m2 in 1 Std. -
Mo, 14.10. 12:50 keine Meldung -
Mo, 14.10. 12:40 keine Meldung -
Mo, 14.10. 12:30 0.0 l/m2 in 1 Std. -
Mo, 14.10. 12:20 keine Meldung -
Mo, 14.10. 12:10 keine Meldung -
Mo, 14.10. 12:00 0.0 l/m2 in 1 Std. -
Mo, 14.10. 11:30 0.0 l/m2 in 1 Std. -
Mo, 14.10. 11:00 0.0 l/m2 in 1 Std. -
Mo, 14.10. 10:30 0.0 l/m2 in 1 Std. -
Mo, 14.10. 10:00 0.0 l/m2 in 1 Std. -
Mo, 14.10. 9:30 0.0 l/m2 in 1 Std. -
Ortszeit Stärke Spitze Richtung
km/h Bft. km/h Grad Sektor
Mo, 14.10. 8:00 4 1 14 190° S
Mo, 14.10. 2:00 9 2 28 140° SO
So, 13.10. 20:00 11 2 40 170° S
So, 13.10. 14:00 22 4 32 180° S
So, 13.10. 8:00 11 2 22 170° S
So, 13.10. 2:00 15 3 31 170° S
Sa, 12.10. 20:00 15 3 37 180° S
Sa, 12.10. 14:00 24 4 41 190° S
Ortszeit Stärke Spitze Richtung
km/h Bft. km/h Grad Sektor
Mo, 14.10. 13:00 14 3 22 160° S
Mo, 14.10. 12:50 14 3 - 160° S
Mo, 14.10. 12:40 14 3 - 160° S
Mo, 14.10. 12:30 11 2 18 140° SO
Mo, 14.10. 12:20 11 2 - 140° SO
Mo, 14.10. 12:10 9 2 - 140° SO
Mo, 14.10. 12:00 11 2 22 140° SO
Mo, 14.10. 11:30 13 3 20 140° SO
Mo, 14.10. 11:00 14 3 18 140° SO
Mo, 14.10. 10:30 7 2 14 160° S
Mo, 14.10. 10:00 7 2 11 150° SO
Mo, 14.10. 9:30 7 2 11 160° S
Ortszeit Untergrenze Bedeckung Gattung
total tief tief mittel hoch
Mo, 14.10. 8:00 6300 m 6/8 5/8 - - -
Mo, 14.10. 2:00 - 0/8 0/8 - - -
So, 13.10. 20:00 - 0/8 0/8 - - -
So, 13.10. 14:00 6900 m 6/8 6/8 - - -
So, 13.10. 8:00 - 0/8 0/8 - - -
So, 13.10. 2:00 1200 m 7/8 3/8 - - -
Sa, 12.10. 20:00 2100 m 8/8 8/8 - - -
Sa, 12.10. 14:00 - 0/8 0/8 - - -
Ortszeit Bedeckungsgrad in Achtel und Wolkenuntergrenze
Mo, 14.10. 13:00 2(9000m)
Mo, 14.10. 12:50 2(9000m)
Mo, 14.10. 12:40 4(9000m)
Mo, 14.10. 12:30 4(9000m)
Mo, 14.10. 12:20 4(9000m)
Mo, 14.10. 12:10 3(9000m)
Mo, 14.10. 12:00 1(9000m)
Mo, 14.10. 11:30 1(9000m)
Mo, 14.10. 11:00 keine Wolken
Mo, 14.10. 10:30 keine Wolken
Mo, 14.10. 10:00 keine Wolken
Mo, 14.10. 9:30 keine Wolken
Ortszeit Luftdruck NN (hPa) Tendenz (hPa in 3 Std.)
Mo, 14.10. 8:00 1017 + 0,7
Mo, 14.10. 2:00 1015 + 0,4
So, 13.10. 20:00 1013 + 1,0
So, 13.10. 14:00 1014 - 1,1
So, 13.10. 8:00 1015 + 0,3
So, 13.10. 2:00 1014 - 0,3
Sa, 12.10. 20:00 1014 + 0,6
Sa, 12.10. 14:00 1013 0,0
Ortszeit Luftdruck NN (hPa) Tendenz (hPa in 3 Std.)
Mo, 14.10. 13:00 1015 - 1,1
Mo, 14.10. 12:50 1015 keine Meldung
Mo, 14.10. 12:40 1015 keine Meldung
Mo, 14.10. 12:30 1015 - 0,7
Mo, 14.10. 12:20 1015 keine Meldung
Mo, 14.10. 12:10 1015 keine Meldung
Mo, 14.10. 12:00 1015 - 0,5
Mo, 14.10. 11:30 1016 - 0,2
Mo, 14.10. 11:00 1016 + 0,3
Mo, 14.10. 10:30 1017 + 0,7
Mo, 14.10. 10:00 1017 + 0,8
Mo, 14.10. 9:30 1017 + 0,9
Ortszeit Schneehöhe (cm)
Mo, 14.10. 8:00 0
Mo, 14.10. 2:00 0
So, 13.10. 20:00 0
So, 13.10. 14:00 0
So, 13.10. 8:00 0
So, 13.10. 2:00 0
Sa, 12.10. 20:00 0
Sa, 12.10. 14:00 0
Ortszeit Schneehöhe (cm)
Mo, 14.10. 13:00 0
Mo, 14.10. 12:50 0
Mo, 14.10. 12:40 0
Mo, 14.10. 12:30 0
Mo, 14.10. 12:20 0
Mo, 14.10. 12:10 0
Mo, 14.10. 12:00 0
Mo, 14.10. 11:30 0
Mo, 14.10. 11:00 0
Mo, 14.10. 10:30 0
Mo, 14.10. 10:00 0
Mo, 14.10. 9:30 0
Link zu dieser Seite / Seite empfehlen

Das Wetter in ...